sensor_id;sensor_type;location;lat;lon;timestamp;pressure;altitude;pressure_sealevel;temperature;humidity
44441;BME280;30146;52.268;20.944;2024-03-02T00:00:56;100072.50;;;8.01;69.94
44441;BME280;30146;52.268;20.944;2024-03-02T00:03:26;100075.58;;;8.00;69.76
44441;BME280;30146;52.268;20.944;2024-03-02T00:05:56;100074.56;;;7.99;69.78
44441;BME280;30146;52.268;20.944;2024-03-02T00:08:25;100065.88;;;7.98;69.91
44441;BME280;30146;52.268;20.944;2024-03-02T00:10:58;100069.63;;;7.98;70.02
44441;BME280;30146;52.268;20.944;2024-03-02T00:13:28;100065.38;;;7.97;69.89
44441;BME280;30146;52.268;20.944;2024-03-02T00:15:58;100055.85;;;7.96;69.86
44441;BME280;30146;52.268;20.944;2024-03-02T00:18:32;100057.38;;;7.94;70.05
44441;BME280;30146;52.268;20.944;2024-03-02T00:21:03;100054.84;;;7.92;70.00
44441;BME280;30146;52.268;20.944;2024-03-02T00:23:33;100052.46;;;7.89;70.08
44441;BME280;30146;52.268;20.944;2024-03-02T00:26:03;100050.60;;;7.88;70.28
44441;BME280;30146;52.268;20.944;2024-03-02T00:28:33;100056.73;;;7.87;70.29
44441;BME280;30146;52.268;20.944;2024-03-02T00:31:04;100052.48;;;7.85;70.08
44441;BME280;30146;52.268;20.944;2024-03-02T00:33:33;100051.12;;;7.82;69.97
44441;BME280;30146;52.268;20.944;2024-03-02T00:36:04;100056.23;;;7.79;70.22
44441;BME280;30146;52.268;20.944;2024-03-02T00:38:43;100051.65;;;7.76;70.07
44441;BME280;30146;52.268;20.944;2024-03-02T00:41:17;100049.45;;;7.73;70.28
44441;BME280;30146;52.268;20.944;2024-03-02T00:44:00;100049.45;;;7.72;70.33
44441;BME280;30146;52.268;20.944;2024-03-02T00:46:33;100049.61;;;7.71;70.42
44441;BME280;30146;52.268;20.944;2024-03-02T00:49:03;100041.80;;;7.67;70.27
44441;BME280;30146;52.268;20.944;2024-03-02T00:51:33;100057.30;;;7.64;70.33
44441;BME280;30146;52.268;20.944;2024-03-02T00:54:04;100057.80;;;7.62;70.44
44441;BME280;30146;52.268;20.944;2024-03-02T00:56:34;100059.50;;;7.62;70.73
44441;BME280;30146;52.268;20.944;2024-03-02T00:59:04;100057.30;;;7.64;70.59
44441;BME280;30146;52.268;20.944;2024-03-02T01:01:33;100063.58;;;7.64;70.70
44441;BME280;30146;52.268;20.944;2024-03-02T01:04:03;100064.95;;;7.66;70.60
44441;BME280;30146;52.268;20.944;2024-03-02T01:06:33;100058.99;;;7.65;70.63
44441;BME280;30146;52.268;20.944;2024-03-02T01:09:02;100060.35;;;7.65;70.58
44441;BME280;30146;52.268;20.944;2024-03-02T01:11:32;100057.30;;;7.66;70.69
44441;BME280;30146;52.268;20.944;2024-03-02T01:14:01;100053.03;;;7.70;70.83
44441;BME280;30146;52.268;20.944;2024-03-02T01:16:30;100042.63;;;7.72;70.71
44441;BME280;30146;52.268;20.944;2024-03-02T01:19:00;100040.27;;;7.73;70.75
44441;BME280;30146;52.268;20.944;2024-03-02T01:21:29;100044.17;;;7.74;70.72
44441;BME280;30146;52.268;20.944;2024-03-02T01:23:59;100045.88;;;7.72;70.64
44441;BME280;30146;52.268;20.944;2024-03-02T01:26:29;100049.95;;;7.70;70.53
44441;BME280;30146;52.268;20.944;2024-03-02T01:28:58;100044.69;;;7.69;70.58
44441;BME280;30146;52.268;20.944;2024-03-02T01:31:28;100045.38;;;7.68;70.62
44441;BME280;30146;52.268;20.944;2024-03-02T01:33:57;100041.14;;;7.66;70.51
44441;BME280;30146;52.268;20.944;2024-03-02T01:36:26;100039.61;;;7.65;70.63
44441;BME280;30146;52.268;20.944;2024-03-02T01:38:56;100034.16;;;7.63;70.68
44441;BME280;30146;52.268;20.944;2024-03-02T01:41:25;100033.48;;;7.58;70.43
44441;BME280;30146;52.268;20.944;2024-03-02T01:43:55;100032.47;;;7.53;70.43
44441;BME280;30146;52.268;20.944;2024-03-02T01:46:24;100028.23;;;7.49;70.50
44441;BME280;30146;52.268;20.944;2024-03-02T01:48:53;100023.97;;;7.49;70.70
44441;BME280;30146;52.268;20.944;2024-03-02T01:51:23;100025.34;;;7.51;70.76
44441;BME280;30146;52.268;20.944;2024-03-02T01:53:52;100023.63;;;7.52;70.95
44441;BME280;30146;52.268;20.944;2024-03-02T01:56:21;100023.30;;;7.50;70.65
44441;BME280;30146;52.268;20.944;2024-03-02T01:58:51;100023.14;;;7.46;70.68
44441;BME280;30146;52.268;20.944;2024-03-02T02:01:20;100022.98;;;7.45;70.73
44441;BME280;30146;52.268;20.944;2024-03-02T02:03:49;100025.52;;;7.42;70.83
44441;BME280;30146;52.268;20.944;2024-03-02T02:06:19;100021.45;;;7.40;70.76
44441;BME280;30146;52.268;20.944;2024-03-02T02:08:49;100022.48;;;7.39;70.81
44441;BME280;30146;52.268;20.944;2024-03-02T02:11:19;100020.09;;;7.36;70.77
44441;BME280;30146;52.268;20.944;2024-03-02T02:13:50;100020.78;;;7.32;70.79
44441;BME280;30146;52.268;20.944;2024-03-02T02:16:19;100025.71;;;7.31;70.97
44441;BME280;30146;52.268;20.944;2024-03-02T02:18:48;100022.99;;;7.29;70.92
44441;BME280;30146;52.268;20.944;2024-03-02T02:23:54;100016.71;;;7.26;71.03
44441;BME280;30146;52.268;20.944;2024-03-02T02:26:24;100010.41;;;7.24;71.11
44441;BME280;30146;52.268;20.944;2024-03-02T02:28:54;100009.91;;;7.22;71.12
44441;BME280;30146;52.268;20.944;2024-03-02T02:31:23;100011.78;;;7.21;71.31
44441;BME280;30146;52.268;20.944;2024-03-02T02:33:52;100011.95;;;7.21;71.25
44441;BME280;30146;52.268;20.944;2024-03-02T02:36:23;100012.80;;;7.20;71.41
44441;BME280;30146;52.268;20.944;2024-03-02T02:38:53;100011.61;;;7.20;71.51
44441;BME280;30146;52.268;20.944;2024-03-02T02:41:23;100008.71;;;7.19;71.36
44441;BME280;30146;52.268;20.944;2024-03-02T02:43:53;100006.17;;;7.18;71.39
44441;BME280;30146;52.268;20.944;2024-03-02T02:46:22;100007.88;;;7.18;71.49
44441;BME280;30146;52.268;20.944;2024-03-02T02:48:51;100002.77;;;7.16;71.37
44441;BME280;30146;52.268;20.944;2024-03-02T02:51:21;99999.04;;;7.16;71.45
44441;BME280;30146;52.268;20.944;2024-03-02T02:53:51;100001.08;;;7.16;71.50
44441;BME280;30146;52.268;20.944;2024-03-02T02:56:21;99997.86;;;7.13;71.45
44441;BME280;30146;52.268;20.944;2024-03-02T02:58:50;99996.33;;;7.11;71.48
44441;BME280;30146;52.268;20.944;2024-03-02T03:01:19;99998.88;;;7.08;71.54
44441;BME280;30146;52.268;20.944;2024-03-02T03:03:49;99995.81;;;7.08;71.52
44441;BME280;30146;52.268;20.944;2024-03-02T03:06:18;99998.71;;;7.06;71.52
44441;BME280;30146;52.268;20.944;2024-03-02T03:08:48;99998.54;;;7.01;71.49
44441;BME280;30146;52.268;20.944;2024-03-02T03:11:17;99991.06;;;6.98;71.72
44441;BME280;30146;52.268;20.944;2024-03-02T03:13:47;99990.38;;;6.95;71.57
44441;BME280;30146;52.268;20.944;2024-03-02T03:16:16;99989.70;;;6.92;71.62
44441;BME280;30146;52.268;20.944;2024-03-02T03:18:45;99988.02;;;6.89;71.71
44441;BME280;30146;52.268;20.944;2024-03-02T03:21:15;99988.02;;;6.87;71.83
44441;BME280;30146;52.268;20.944;2024-03-02T03:23:44;99991.06;;;6.85;71.90
44441;BME280;30146;52.268;20.944;2024-03-02T03:26:13;99991.06;;;6.84;71.95
44441;BME280;30146;52.268;20.944;2024-03-02T03:28:43;99991.23;;;6.84;71.93
44441;BME280;30146;52.268;20.944;2024-03-02T03:31:12;99991.41;;;6.81;72.02
44441;BME280;30146;52.268;20.944;2024-03-02T03:33:41;99990.89;;;6.79;71.94
44441;BME280;30146;52.268;20.944;2024-03-02T03:36:11;99991.40;;;6.75;71.90
44441;BME280;30146;52.268;20.944;2024-03-02T03:38:40;99989.02;;;6.75;72.11
44441;BME280;30146;52.268;20.944;2024-03-02T03:41:09;99993.79;;;6.76;72.26
44441;BME280;30146;52.268;20.944;2024-03-02T03:43:39;99998.88;;;6.75;72.34
44441;BME280;30146;52.268;20.944;2024-03-02T03:46:08;99995.98;;;6.74;72.35
44441;BME280;30146;52.268;20.944;2024-03-02T03:48:37;99994.30;;;6.75;72.37
44441;BME280;30146;52.268;20.944;2024-03-02T03:51:06;99995.31;;;6.72;72.38
44441;BME280;30146;52.268;20.944;2024-03-02T03:53:36;99986.82;;;6.71;72.20
44441;BME280;30146;52.268;20.944;2024-03-02T03:56:05;99986.82;;;6.70;72.31
44441;BME280;30146;52.268;20.944;2024-03-02T03:58:35;99983.59;;;6.68;72.26
44441;BME280;30146;52.268;20.944;2024-03-02T04:01:04;99987.67;;;6.66;72.32
44441;BME280;30146;52.268;20.944;2024-03-02T04:03:34;99986.81;;;6.64;72.40
44441;BME280;30146;52.268;20.944;2024-03-02T04:06:03;99985.96;;;6.63;72.49
44441;BME280;30146;52.268;20.944;2024-03-02T04:08:32;99986.29;;;6.59;72.38
44441;BME280;30146;52.268;20.944;2024-03-02T04:11:02;99982.38;;;6.55;72.36
44441;BME280;30146;52.268;20.944;2024-03-02T04:13:32;99986.81;;;6.55;72.58
44441;BME280;30146;52.268;20.944;2024-03-02T04:16:02;99994.80;;;6.54;72.67
44441;BME280;30146;52.268;20.944;2024-03-02T04:18:33;99995.45;;;6.52;72.67
44441;BME280;30146;52.268;20.944;2024-03-02T04:21:03;99992.05;;;6.50;72.67
44441;BME280;30146;52.268;20.944;2024-03-02T04:23:32;99996.47;;;6.51;72.78
44441;BME280;30146;52.268;20.944;2024-03-02T04:26:01;99997.16;;;6.50;72.81
44441;BME280;30146;52.268;20.944;2024-03-02T04:28:31;99999.36;;;6.49;72.82
44441;BME280;30146;52.268;20.944;2024-03-02T04:31:00;99996.81;;;6.47;72.80
44441;BME280;30146;52.268;20.944;2024-03-02T04:33:30;100011.41;;;6.46;72.86
44441;BME280;30146;52.268;20.944;2024-03-02T04:35:59;100004.45;;;6.46;72.99
44441;BME280;30146;52.268;20.944;2024-03-02T04:38:28;100002.23;;;6.45;72.92
44441;BME280;30146;52.268;20.944;2024-03-02T04:40:58;99999.52;;;6.44;73.08
44441;BME280;30146;52.268;20.944;2024-03-02T04:43:27;99999.01;;;6.43;73.05
44441;BME280;30146;52.268;20.944;2024-03-02T04:45:56;99989.33;;;6.43;73.19
44441;BME280;30146;52.268;20.944;2024-03-02T04:48:26;99996.98;;;6.43;73.20
44441;BME280;30146;52.268;20.944;2024-03-02T04:50:55;99994.25;;;6.43;73.12
44441;BME280;30146;52.268;20.944;2024-03-02T04:53:25;99993.92;;;6.41;73.11
44441;BME280;30146;52.268;20.944;2024-03-02T04:55:54;99997.13;;;6.40;73.24
44441;BME280;30146;52.268;20.944;2024-03-02T04:58:40;99999.00;;;6.40;73.21
44441;BME280;30146;52.268;20.944;2024-03-02T05:01:10;99999.17;;;6.40;73.22
44441;BME280;30146;52.268;20.944;2024-03-02T05:03:39;99997.47;;;6.39;73.19
44441;BME280;30146;52.268;20.944;2024-03-02T05:06:09;99990.00;;;6.39;73.29
44441;BME280;30146;52.268;20.944;2024-03-02T05:08:38;100001.20;;;6.39;73.46
44441;BME280;30146;52.268;20.944;2024-03-02T05:11:07;99992.55;;;6.39;73.37
44441;BME280;30146;52.268;20.944;2024-03-02T05:13:54;99999.52;;;6.40;73.50
44441;BME280;30146;52.268;20.944;2024-03-02T05:16:23;100000.02;;;6.43;73.53
44441;BME280;30146;52.268;20.944;2024-03-02T05:18:52;100010.05;;;6.43;73.56
44441;BME280;30146;52.268;20.944;2024-03-02T05:21:22;100015.48;;;6.45;73.58
44441;BME280;30146;52.268;20.944;2024-03-02T05:23:51;100018.54;;;6.47;73.66
44441;BME280;30146;52.268;20.944;2024-03-02T05:26:20;100020.08;;;6.49;73.75
44441;BME280;30146;52.268;20.944;2024-03-02T05:28:50;100018.73;;;6.50;73.66
44441;BME280;30146;52.268;20.944;2024-03-02T05:31:19;100025.68;;;6.51;73.59
44441;BME280;30146;52.268;20.944;2024-03-02T05:33:48;100026.19;;;6.50;73.46
44441;BME280;30146;52.268;20.944;2024-03-02T05:36:24;100033.50;;;6.51;73.62
44441;BME280;30146;52.268;20.944;2024-03-02T05:38:53;100032.13;;;6.51;73.48
44441;BME280;30146;52.268;20.944;2024-03-02T05:41:22;100037.58;;;6.52;73.60
44441;BME280;30146;52.268;20.944;2024-03-02T05:43:52;100038.42;;;6.52;73.47
44441;BME280;30146;52.268;20.944;2024-03-02T05:46:21;100032.48;;;6.53;73.63
44441;BME280;30146;52.268;20.944;2024-03-02T05:48:51;100032.65;;;6.52;73.55
44441;BME280;30146;52.268;20.944;2024-03-02T05:51:20;100036.73;;;6.52;73.59
44441;BME280;30146;52.268;20.944;2024-03-02T05:53:49;100046.23;;;6.52;73.56
44441;BME280;30146;52.268;20.944;2024-03-02T05:56:19;100044.52;;;6.52;73.72
44441;BME280;30146;52.268;20.944;2024-03-02T05:58:48;100047.92;;;6.53;73.62
44441;BME280;30146;52.268;20.944;2024-03-02T06:01:28;100051.34;;;6.54;73.67
44441;BME280;30146;52.268;20.944;2024-03-02T06:03:58;100047.77;;;6.56;73.75
44441;BME280;30146;52.268;20.944;2024-03-02T06:06:28;100049.30;;;6.57;73.70
44441;BME280;30146;52.268;20.944;2024-03-02T06:08:57;100051.16;;;6.56;73.55
44441;BME280;30146;52.268;20.944;2024-03-02T06:11:26;100048.61;;;6.54;73.61
44441;BME280;30146;52.268;20.944;2024-03-02T06:13:56;100050.98;;;6.54;73.69
44441;BME280;30146;52.268;20.944;2024-03-02T06:16:25;100052.35;;;6.54;73.67
44441;BME280;30146;52.268;20.944;2024-03-02T06:18:54;100056.92;;;6.55;73.78
44441;BME280;30146;52.268;20.944;2024-03-02T06:21:26;100054.90;;;6.57;73.98
44441;BME280;30146;52.268;20.944;2024-03-02T06:23:56;100054.58;;;6.59;73.94
44441;BME280;30146;52.268;20.944;2024-03-02T06:26:25;100053.71;;;6.61;73.93
44441;BME280;30146;52.268;20.944;2024-03-02T06:28:55;100052.86;;;6.61;73.79
44441;BME280;30146;52.268;20.944;2024-03-02T06:31:24;100058.66;;;6.62;73.79
44441;BME280;30146;52.268;20.944;2024-03-02T06:33:53;100067.15;;;6.64;73.96
44441;BME280;30146;52.268;20.944;2024-03-02T06:36:23;100064.43;;;6.66;73.85
44441;BME280;30146;52.268;20.944;2024-03-02T06:38:52;100069.36;;;6.68;73.82
44441;BME280;30146;52.268;20.944;2024-03-02T06:41:21;100069.20;;;6.71;73.83
44441;BME280;30146;52.268;20.944;2024-03-02T06:43:51;100069.89;;;6.73;73.83
44441;BME280;30146;52.268;20.944;2024-03-02T06:46:27;100076.17;;;6.74;73.91
44441;BME280;30146;52.268;20.944;2024-03-02T06:48:57;100073.80;;;6.77;73.95
44441;BME280;30146;52.268;20.944;2024-03-02T06:51:26;100077.36;;;6.79;73.93
44441;BME280;30146;52.268;20.944;2024-03-02T06:53:55;100076.52;;;6.80;73.90
44441;BME280;30146;52.268;20.944;2024-03-02T06:56:25;100077.38;;;6.84;73.85
44441;BME280;30146;52.268;20.944;2024-03-02T06:58:54;100075.17;;;6.88;73.94
44441;BME280;30146;52.268;20.944;2024-03-02T07:01:23;100073.64;;;6.93;74.00
44441;BME280;30146;52.268;20.944;2024-03-02T07:03:55;100074.34;;;6.97;73.85
44441;BME280;30146;52.268;20.944;2024-03-02T07:06:24;100078.41;;;6.99;73.78
44441;BME280;30146;52.268;20.944;2024-03-02T07:08:53;100078.08;;;7.00;73.70
44441;BME280;30146;52.268;20.944;2024-03-02T07:11:23;100079.09;;;7.02;73.71
44441;BME280;30146;52.268;20.944;2024-03-02T07:13:52;100074.15;;;7.03;73.86
44441;BME280;30146;52.268;20.944;2024-03-02T07:16:21;100078.76;;;7.05;73.67
44441;BME280;30146;52.268;20.944;2024-03-02T07:18:56;100082.84;;;7.05;73.59
44441;BME280;30146;52.268;20.944;2024-03-02T07:21:27;100076.71;;;7.03;73.48
44441;BME280;30146;52.268;20.944;2024-03-02T07:23:56;100077.56;;;7.02;73.52
44441;BME280;30146;52.268;20.944;2024-03-02T07:26:25;100076.71;;;7.04;73.61
44441;BME280;30146;52.268;20.944;2024-03-02T07:28:57;100078.75;;;7.04;73.56
44441;BME280;30146;52.268;20.944;2024-03-02T07:31:27;100083.85;;;7.05;73.59
44441;BME280;30146;52.268;20.944;2024-03-02T07:33:57;100084.02;;;7.07;73.70
44441;BME280;30146;52.268;20.944;2024-03-02T07:36:26;100085.22;;;7.09;73.64
44441;BME280;30146;52.268;20.944;2024-03-02T07:38:55;100089.29;;;7.11;73.77
44441;BME280;30146;52.268;20.944;2024-03-02T07:41:25;100087.60;;;7.14;73.67
44441;BME280;30146;52.268;20.944;2024-03-02T07:43:54;100088.45;;;7.18;73.77
44441;BME280;30146;52.268;20.944;2024-03-02T07:46:24;100085.73;;;7.19;73.73
44441;BME280;30146;52.268;20.944;2024-03-02T07:48:54;100084.70;;;7.24;73.68
44441;BME280;30146;52.268;20.944;2024-03-02T07:51:23;100081.65;;;7.26;73.65
44441;BME280;30146;52.268;20.944;2024-03-02T07:53:53;100084.20;;;7.30;73.62
44441;BME280;30146;52.268;20.944;2024-03-02T07:56:22;100093.39;;;7.32;73.44
44441;BME280;30146;52.268;20.944;2024-03-02T07:58:51;100090.33;;;7.34;73.50
44441;BME280;30146;52.268;20.944;2024-03-02T08:01:21;100096.96;;;7.35;73.29
44441;BME280;30146;52.268;20.944;2024-03-02T08:03:50;100101.20;;;7.36;73.37
44441;BME280;30146;52.268;20.944;2024-03-02T08:06:20;100104.60;;;7.37;73.29
44441;BME280;30146;52.268;20.944;2024-03-02T08:08:50;100108.52;;;7.37;73.20
44441;BME280;30146;52.268;20.944;2024-03-02T08:11:19;100114.13;;;7.39;73.16
44441;BME280;30146;52.268;20.944;2024-03-02T08:13:49;100114.46;;;7.43;73.39
44441;BME280;30146;52.268;20.944;2024-03-02T08:16:18;100110.39;;;7.47;73.34
44441;BME280;30146;52.268;20.944;2024-03-02T08:18:48;100110.05;;;7.49;73.22
44441;BME280;30146;52.268;20.944;2024-03-02T08:21:17;100110.39;;;7.53;73.31
44441;BME280;30146;52.268;20.944;2024-03-02T08:23:46;100111.39;;;7.56;73.23
44441;BME280;30146;52.268;20.944;2024-03-02T08:26:16;100106.30;;;7.57;73.17
44441;BME280;30146;52.268;20.944;2024-03-02T08:28:45;100105.78;;;7.60;73.22
44441;BME280;30146;52.268;20.944;2024-03-02T08:31:14;100107.31;;;7.62;73.14
44441;BME280;30146;52.268;20.944;2024-03-02T08:33:44;100099.98;;;7.63;73.22
44441;BME280;30146;52.268;20.944;2024-03-02T08:36:13;100106.45;;;7.65;73.05
44441;BME280;30146;52.268;20.944;2024-03-02T08:38:42;100103.06;;;7.67;73.01
44441;BME280;30146;52.268;20.944;2024-03-02T08:41:12;100106.97;;;7.67;72.94
44441;BME280;30146;52.268;20.944;2024-03-02T08:43:44;100112.23;;;7.69;72.88
44441;BME280;30146;52.268;20.944;2024-03-02T08:46:13;100106.78;;;7.69;72.88
44441;BME280;30146;52.268;20.944;2024-03-02T08:48:42;100110.70;;;7.69;72.85
44441;BME280;30146;52.268;20.944;2024-03-02T08:51:12;100124.13;;;7.71;72.86
44441;BME280;30146;52.268;20.944;2024-03-02T08:53:41;100113.58;;;7.69;72.91
44441;BME280;30146;52.268;20.944;2024-03-02T08:56:11;100112.73;;;7.64;72.60
44441;BME280;30146;52.268;20.944;2024-03-02T08:58:41;100115.46;;;7.62;72.54
44441;BME280;30146;52.268;20.944;2024-03-02T09:01:12;100113.77;;;7.63;72.81
44441;BME280;30146;52.268;20.944;2024-03-02T09:03:41;100115.81;;;7.65;72.96
44441;BME280;30146;52.268;20.944;2024-03-02T09:06:12;100116.82;;;7.70;73.24
44441;BME280;30146;52.268;20.944;2024-03-02T09:08:44;100115.11;;;7.75;73.17
44441;BME280;30146;52.268;20.944;2024-03-02T09:11:14;100114.77;;;7.81;73.22
44441;BME280;30146;52.268;20.944;2024-03-02T09:13:43;100120.02;;;7.85;73.04
44441;BME280;30146;52.268;20.944;2024-03-02T09:16:12;100117.30;;;7.89;73.00
44441;BME280;30146;52.268;20.944;2024-03-02T09:18:42;100122.05;;;7.96;73.19
44441;BME280;30146;52.268;20.944;2024-03-02T09:21:11;100116.08;;;8.01;73.12
44441;BME280;30146;52.268;20.944;2024-03-02T09:23:40;100110.96;;;8.08;73.01
44441;BME280;30146;52.268;20.944;2024-03-02T09:26:12;100112.83;;;8.11;72.84
44441;BME280;30146;52.268;20.944;2024-03-02T09:28:43;100116.20;;;8.15;72.64
44441;BME280;30146;52.268;20.944;2024-03-02T09:31:13;100108.38;;;8.17;72.61
44441;BME280;30146;52.268;20.944;2024-03-02T09:33:42;100116.52;;;8.21;72.49
44441;BME280;30146;52.268;20.944;2024-03-02T09:36:18;100116.18;;;8.24;72.44
44441;BME280;30146;52.268;20.944;2024-03-02T09:38:47;100113.63;;;8.24;72.23
44441;BME280;30146;52.268;20.944;2024-03-02T09:41:17;100113.95;;;8.26;72.27
44441;BME280;30146;52.268;20.944;2024-03-02T09:43:47;100118.36;;;8.30;72.40
44441;BME280;30146;52.268;20.944;2024-03-02T09:46:17;100112.41;;;8.32;72.33
44441;BME280;30146;52.268;20.944;2024-03-02T09:48:46;100113.24;;;8.35;72.33
44441;BME280;30146;52.268;20.944;2024-03-02T09:51:16;100119.20;;;8.40;72.25
44441;BME280;30146;52.268;20.944;2024-03-02T09:53:47;100115.63;;;8.42;72.25
44441;BME280;30146;52.268;20.944;2024-03-02T09:56:17;100116.11;;;8.48;72.23
44441;BME280;30146;52.268;20.944;2024-03-02T09:58:47;100113.88;;;8.52;72.19
44441;BME280;30146;52.268;20.944;2024-03-02T10:01:16;100116.56;;;8.59;72.30
44441;BME280;30146;52.268;20.944;2024-03-02T10:03:46;100114.15;;;8.64;72.16
44441;BME280;30146;52.268;20.944;2024-03-02T10:06:21;100115.15;;;8.71;72.06
44441;BME280;30146;52.268;20.944;2024-03-02T10:08:51;100108.30;;;8.76;71.92
44441;BME280;30146;52.268;20.944;2024-03-02T10:11:27;100110.14;;;8.84;71.80
44441;BME280;30146;52.268;20.944;2024-03-02T10:14:07;100104.29;;;8.91;71.92
44441;BME280;30146;52.268;20.944;2024-03-02T10:16:37;100104.58;;;8.98;71.91
44441;BME280;30146;52.268;20.944;2024-03-02T10:19:19;100107.95;;;9.05;71.74
44441;BME280;30146;52.268;20.944;2024-03-02T10:21:49;100100.27;;;9.06;71.32
44441;BME280;30146;52.268;20.944;2024-03-02T10:24:19;100098.53;;;9.11;71.33
44441;BME280;30146;52.268;20.944;2024-03-02T10:26:49;100089.81;;;9.13;71.07
44441;BME280;30146;52.268;20.944;2024-03-02T10:29:18;100090.65;;;9.15;71.15
44441;BME280;30146;52.268;20.944;2024-03-02T10:31:48;100093.18;;;9.19;71.10
44441;BME280;30146;52.268;20.944;2024-03-02T10:34:17;100091.80;;;9.22;71.00
44441;BME280;30146;52.268;20.944;2024-03-02T10:36:47;100091.42;;;9.28;70.95
44441;BME280;30146;52.268;20.944;2024-03-02T10:39:16;100087.11;;;9.32;71.00
44441;BME280;30146;52.268;20.944;2024-03-02T10:41:46;100086.19;;;9.40;71.04
44441;BME280;30146;52.268;20.944;2024-03-02T10:44:18;100090.23;;;9.47;70.91
44441;BME280;30146;52.268;20.944;2024-03-02T10:46:47;100094.59;;;9.53;70.81
44441;BME280;30146;52.268;20.944;2024-03-02T10:49:18;100090.45;;;9.59;70.69
44441;BME280;30146;52.268;20.944;2024-03-02T10:51:48;100093.95;;;9.67;70.61
44441;BME280;30146;52.268;20.944;2024-03-02T10:54:17;100087.59;;;9.72;70.25
44441;BME280;30146;52.268;20.944;2024-03-02T10:56:53;100089.92;;;9.80;70.32
44441;BME280;30146;52.268;20.944;2024-03-02T10:59:26;100083.02;;;9.85;70.31
44441;BME280;30146;52.268;20.944;2024-03-02T11:01:57;100084.16;;;9.92;70.14
44441;BME280;30146;52.268;20.944;2024-03-02T11:04:32;100082.08;;;9.94;69.93
44441;BME280;30146;52.268;20.944;2024-03-02T11:07:04;100078.46;;;9.97;69.69
44441;BME280;30146;52.268;20.944;2024-03-02T11:09:37;100072.98;;;9.97;69.73
44441;BME280;30146;52.268;20.944;2024-03-02T11:12:09;100073.30;;;10.00;69.58
44441;BME280;30146;52.268;20.944;2024-03-02T11:14:46;100070.20;;;10.02;69.71
44441;BME280;30146;52.268;20.944;2024-03-02T11:17:21;100077.16;;;10.06;69.64
44441;BME280;30146;52.268;20.944;2024-03-02T11:19:53;100077.65;;;10.07;69.51
44441;BME280;30146;52.268;20.944;2024-03-02T11:22:27;100063.81;;;10.08;69.51
44441;BME280;30146;52.268;20.944;2024-03-02T11:24:56;100064.30;;;10.10;69.37
44441;BME280;30146;52.268;20.944;2024-03-02T11:30:18;100072.10;;;10.13;69.28
44441;BME280;30146;52.268;20.944;2024-03-02T11:33:10;100069.00;;;10.17;69.27
44441;BME280;30146;52.268;20.944;2024-03-02T11:35:44;100069.80;;;10.21;69.19
44441;BME280;30146;52.268;20.944;2024-03-02T11:41:11;100065.26;;;10.33;69.30
44441;BME280;30146;52.268;20.944;2024-03-02T11:43:43;100062.27;;;10.38;69.17
44441;BME280;30146;52.268;20.944;2024-03-02T11:46:13;100059.62;;;10.44;69.26
44441;BME280;30146;52.268;20.944;2024-03-02T11:48:46;100058.04;;;10.48;68.89
44441;BME280;30146;52.268;20.944;2024-03-02T11:51:18;100047.76;;;10.51;68.84
44441;BME280;30146;52.268;20.944;2024-03-02T11:53:48;100051.98;;;10.53;68.94
44441;BME280;30146;52.268;20.944;2024-03-02T11:56:19;100044.80;;;10.54;68.60
44441;BME280;30146;52.268;20.944;2024-03-02T11:58:49;100049.38;;;10.56;68.68
44441;BME280;30146;52.268;20.944;2024-03-02T12:01:25;100042.33;;;10.59;68.55
44441;BME280;30146;52.268;20.944;2024-03-02T12:03:56;100043.83;;;10.63;68.60
44441;BME280;30146;52.268;20.944;2024-03-02T12:06:37;100035.91;;;10.65;68.42
44441;BME280;30146;52.268;20.944;2024-03-02T12:09:07;100036.38;;;10.69;68.40
44441;BME280;30146;52.268;20.944;2024-03-02T12:11:40;100038.64;;;10.78;68.53
44441;BME280;30146;52.268;20.944;2024-03-02T12:14:13;100043.29;;;10.87;68.58
44441;BME280;30146;52.268;20.944;2024-03-02T12:16:47;100040.44;;;10.94;68.38
44441;BME280;30146;52.268;20.944;2024-03-02T12:19:16;100040.18;;;11.00;68.25
44441;BME280;30146;52.268;20.944;2024-03-02T12:21:48;100029.30;;;11.07;68.13
44441;BME280;30146;52.268;20.944;2024-03-02T12:24:20;100028.87;;;11.11;67.88
44441;BME280;30146;52.268;20.944;2024-03-02T12:26:52;100030.19;;;11.15;67.83
44441;BME280;30146;52.268;20.944;2024-03-02T12:29:31;100026.52;;;11.18;67.72
44441;BME280;30146;52.268;20.944;2024-03-02T12:32:07;100043.55;;;11.23;67.63
44441;BME280;30146;52.268;20.944;2024-03-02T12:34:39;100054.29;;;11.26;67.37
44441;BME280;30146;52.268;20.944;2024-03-02T12:37:13;100049.99;;;11.27;67.30
44441;BME280;30146;52.268;20.944;2024-03-02T12:39:45;100046.55;;;11.28;67.28
44441;BME280;30146;52.268;20.944;2024-03-02T12:42:16;100049.95;;;11.30;67.18
44441;BME280;30146;52.268;20.944;2024-03-02T12:44:45;100048.56;;;11.30;67.16
44441;BME280;30146;52.268;20.944;2024-03-02T12:47:17;100051.73;;;11.34;67.16
44441;BME280;30146;52.268;20.944;2024-03-02T12:49:47;100053.08;;;11.36;66.91
44441;BME280;30146;52.268;20.944;2024-03-02T12:52:17;100047.81;;;11.34;66.78
44441;BME280;30146;52.268;20.944;2024-03-02T12:54:47;100051.92;;;11.34;66.72
44441;BME280;30146;52.268;20.944;2024-03-02T12:57:19;100057.77;;;11.33;66.70
44441;BME280;30146;52.268;20.944;2024-03-02T12:59:48;100057.96;;;11.31;66.64
44441;BME280;30146;52.268;20.944;2024-03-02T13:02:18;100054.75;;;11.29;66.63
44441;BME280;30146;52.268;20.944;2024-03-02T13:04:53;100050.19;;;11.26;66.60
44441;BME280;30146;52.268;20.944;2024-03-02T13:21:54;100041.06;;;11.76;66.35
44441;BME280;30146;52.268;20.944;2024-03-02T13:24:27;100036.54;;;11.71;66.19
44441;BME280;30146;52.268;20.944;2024-03-02T13:26:59;100043.83;;;11.67;66.07
44441;BME280;30146;52.268;20.944;2024-03-02T13:29:33;100044.77;;;11.61;65.87